• Join FlightAware (Why Join?)
  • Login
  • US Flag 
07:55PM EST


 

Airport Tracker/Info


-or-


 

Live Flight TrackerFlight Track Log ✈ BOE573 ✈ 31-Jan-2014 ✈ KMWH - KPAE

Flight Track Log - Related Links

Times and Time Zones

All times are in EST time to prevent confusion due to time zone crossing. See the BOE573 flight status page for this flight to view local times or setup timezone preferences in your user account.

Time Position Orientation Groundspeed Altitude Reporting Facility
EST Latitude Longitude Course Direction KTS MPH feet Rate Location/Type
04:31PM 47.2628 -119.3986 347° North 254 292 9,800  Level Seattle Center
04:32PM 47.3186 -119.3228 43° Northeast 318 366 12,100 3,000 Climbing Seattle Center
04:33PM 47.3408 -119.1772 77° East 364 419 15,900 3,443 Climbing Seattle Center
04:34PM 47.3594 -119.0514 78° East 377 434 19,100 3,492 Climbing Seattle Center
04:35PM 47.3797 -120.0090 290° West  Level Estimated
04:35PM 47.3878 -118.8553 78° East 401 461 23,000  Level Seattle Center
04:36PM 47.4128 -118.6886 77° East 414 476 26,900 3,098 Climbing Seattle Center
04:37PM 47.4572 -118.5325 67° East 424 488 29,300 2,459 Climbing Seattle Center
04:38PM 47.5567 -118.4622 25° Northeast 420 483 31,900 552 Climbing Seattle Center
04:44PM 47.7641 -119.4800 25° Northeast 501 577 33,000 178 Climbing FlightAware ADS-B
04:44PM 47.7712 -119.5830 276° West 501 577 33,000 -787 Level FlightAware ADS-B
04:45PM 47.7780 -119.6870 276° West 495 570 32,200 -2,000 Descending FlightAware ADS-B
04:45PM 47.7850 -119.7940 276° West 488 562 30,900 -2,348 Descending FlightAware ADS-B
04:46PM 47.7929 -119.9140 276° West 486 559 29,500 -2,294 Descending FlightAware ADS-B
04:46PM 47.7994 -120.0170 275° West 469 540 28,300 -2,903 Descending FlightAware ADS-B
04:47PM 47.8057 -120.1150 276° West 471 542 26,500 -3,387 Descending FlightAware ADS-B
04:47PM 47.8119 -120.2150 275° West 479 551 24,800 -2,226 Descending FlightAware ADS-B
04:48PM 47.8181 -120.3180 275° West 475 547 24,200 -774 Descending FlightAware ADS-B
04:48PM 47.8241 -120.4170 275° West 475 547 24,000 -1,082 Descending FlightAware ADS-B
04:49PM 47.8299 -120.5150 275° West 473 544 23,100 -2,754 Descending FlightAware ADS-B
04:49PM 47.8358 -120.6140 275° West 473 544 21,200 -3,148 Descending FlightAware ADS-B
04:50PM 47.8412 -120.7100 275° West 457 526 19,900 -2,700 Descending FlightAware ADS-B
04:50PM 47.8464 -120.8030 275° West 443 510 18,500 -3,000 Descending FlightAware ADS-B
04:51PM 47.8514 -120.8940 275° West 436 502 16,900 -3,049 Descending FlightAware ADS-B
04:51PM 47.8564 -120.9840 275° West 427 491 15,400 -3,000 Descending FlightAware ADS-B
04:52PM 47.8612 -121.0740 275° West 420 483 13,800 -2,459 Descending FlightAware ADS-B
04:52PM 47.8657 -121.1590 275° West 403 464 12,900 -1,672 Descending FlightAware ADS-B
04:53PM 47.8701 -121.2410 275° West 387 445 12,100 -1,475 Descending FlightAware ADS-B
04:53PM 47.8743 -121.3210 275° West 384 442 11,400 -1,600 Descending FlightAware ADS-B
04:54PM 47.8784 -121.3990 275° West 372 428 10,500 -1,527 Descending FlightAware ADS-B
04:54PM 47.8816 -121.4620 274° West 350 403 10,000 -1,024 Descending FlightAware ADS-B
04:55PM 47.8834 -121.4980 274° West 336 387 9,800 -375 Descending FlightAware ADS-B
04:55PM 47.8851 -121.5340 274° West 318 366 9,800  Level FlightAware ADS-B
04:55PM 47.8861 -121.5530 274° West 306 352 9,800  Level FlightAware ADS-B
04:55PM 47.8876 -121.5830 274° West 291 335 9,800  Level FlightAware ADS-B
04:56PM 47.8891 -121.6140 274° West 278 320 9,800  Level FlightAware ADS-B
04:56PM 47.8905 -121.6430 274° West 271 312 9,800  Level FlightAware ADS-B
04:56PM 47.8919 -121.6710 274° West 262 302 9,800 -387 Level FlightAware ADS-B
04:56PM 47.8933 -121.6990 274° West 260 299 9,600 -581 Descending FlightAware ADS-B
04:57PM 47.8946 -121.7260 274° West 259 298 9,500 -563 Descending FlightAware ADS-B
04:57PM 47.8960 -121.7550 274° West 256 295 9,300 -1,125 Descending FlightAware ADS-B
04:57PM 47.8973 -121.7820 274° West 255 293 8,900 -1,313 Descending FlightAware ADS-B
04:57PM 47.8986 -121.8100 274° West 254 292 8,600 -1,313 Descending FlightAware ADS-B
04:58PM 47.8999 -121.8380 274° West 253 291 8,200 -1,846 Descending FlightAware ADS-B
04:58PM 47.9008 -121.8570 274° West 251 289 7,800 -2,308 Descending FlightAware ADS-B
04:58PM 47.9021 -121.8830 274° West 254 292 7,200 -2,077 Descending FlightAware ADS-B
04:58PM 47.9030 -121.9020 274° West 254 292 6,900 -1,846 Descending FlightAware ADS-B
04:59PM 47.9042 -121.9280 274° West 253 291 6,400 -1,935 Descending FlightAware ADS-B
04:59PM 47.9054 -121.9550 274° West 251 289 5,900 -1,742 Descending FlightAware ADS-B
04:59PM 47.9065 -121.9810 274° West 248 285 5,500 -1,588 Descending FlightAware ADS-B
04:59PM 47.9080 -122.0130 274° West 247 284 5,000 -1,059 Descending FlightAware ADS-B
05:00PM 47.9092 -122.0370 274° West 233 268 4,900 -207 Descending FlightAware ADS-B
05:00PM 47.9100 -122.0580 273° West 217 250 4,900 -333 Level FlightAware ADS-B
05:00PM 47.9098 -122.0650 268° West 213 245 4,800 -800 Descending FlightAware ADS-B
05:00PM 47.9073 -122.0790 255° West 207 238 4,700 -667 Descending FlightAware ADS-B
05:00PM 47.9048 -122.0890 250° West 204 235 4,600 -818 Descending FlightAware ADS-B
05:00PM 47.8991 -122.1090 247° West 198 228 4,400 -833 Descending FlightAware ADS-B
05:01PM 47.8920 -122.1340 247° West 194 223 4,100 -873 Descending FlightAware ADS-B
05:01PM 47.8819 -122.1708 247° West 193 222 3,600 -815 Descending Seattle Center
05:02PM 47.8647 -122.2236 244° Southwest 164 189 3,000 -590 Descending Seattle Center
05:02PM 47.8619 -122.2358 251° West 174 200 3,000 98 Level Seattle Center
05:03PM 47.8450 -122.2775 239° Southwest 141 162 3,100 98 Climbing Seattle Center
05:03PM 47.8408 -122.2867 236° Southwest 149 171 3,100 -393 Level Seattle Center
05:04PM 47.8197 -122.3278 233° Southwest 151 174 2,700 -393 Descending Seattle Center
05:04PM 47.8133 -122.3314 201° Southwest 157 181 2,700 -300 Level Seattle Center
05:05PM 47.7828 -122.3219 168° South 157 181 2,400 -295 Descending Seattle Center
05:05PM 47.7825 -122.3075 92° East 158 182 2,400 -98 Level Seattle Center
05:06PM 47.8069 -122.2856 31° Northeast 132 152 2,300 -197 Descending Seattle Center
05:06PM 47.8133 -122.2825 18° North 137 158 2,200 -590 Descending Seattle Center
05:07PM 47.8444 -122.2844 358° North 136 157 1,700 -689 Descending Seattle Center
05:07PM 47.8511 -122.2842 North 137 158 1,500 -711 Descending Seattle Center
05:08PM 47.8897 -122.2850 359° North 139 160 800 -689 Descending Seattle Center
05:10PM 47.9000 -122.2667 14° North  Level FlightAware Approximate
05:17PM 47.9070 -122.2816 14° North  Level Estimated